createdAt,value
2022-07-31T00:00:22.652Z,15.60
2022-07-31T00:02:49.944Z,15.60
2022-07-31T00:05:17.765Z,15.70
2022-07-31T00:07:44.926Z,15.70
2022-07-31T00:10:12.587Z,15.60
2022-07-31T00:12:39.846Z,15.60
2022-07-31T00:15:10.337Z,15.50
2022-07-31T00:17:42.906Z,15.50
2022-07-31T00:20:15.405Z,15.50
2022-07-31T00:22:44.729Z,15.40
2022-07-31T00:25:13.769Z,15.40
2022-07-31T00:27:42.897Z,15.30
2022-07-31T00:30:13.114Z,15.30
2022-07-31T00:32:40.968Z,15.30
2022-07-31T00:35:08.917Z,15.30
2022-07-31T00:37:37.659Z,15.20
2022-07-31T00:40:08.606Z,15.10
2022-07-31T00:42:36.359Z,15.10
2022-07-31T00:45:04.222Z,15.00
2022-07-31T00:47:33.238Z,15.00
2022-07-31T00:50:01.134Z,14.80
2022-07-31T00:52:29.338Z,14.80
2022-07-31T00:54:56.591Z,14.80
2022-07-31T00:57:23.807Z,14.80
2022-07-31T00:59:50.997Z,14.70
2022-07-31T01:02:18.206Z,14.50
2022-07-31T01:04:46.882Z,14.50
2022-07-31T01:07:14.072Z,14.50
2022-07-31T01:09:41.256Z,14.30
2022-07-31T01:12:31.655Z,14.10
2022-07-31T01:15:03.396Z,14.00
2022-07-31T01:17:32.108Z,14.00
2022-07-31T01:19:59.948Z,14.00
2022-07-31T01:23:02.998Z,13.90
2022-07-31T01:26:03.792Z,13.80
2022-07-31T01:28:58.223Z,13.70
2022-07-31T01:31:53.852Z,13.60
2022-07-31T01:34:43.586Z,13.50
2022-07-31T01:37:24.079Z,13.30
2022-07-31T01:39:57.713Z,13.20
2022-07-31T01:42:27.539Z,13.20
2022-07-31T01:45:00.688Z,13.10
2022-07-31T01:47:29.615Z,13.10
2022-07-31T01:49:59.313Z,13.00
2022-07-31T01:52:29.492Z,12.90
2022-07-31T01:54:58.883Z,12.80
2022-07-31T01:57:27.458Z,12.80
2022-07-31T02:00:01.209Z,12.70
2022-07-31T02:02:31.017Z,12.70
2022-07-31T02:04:59.394Z,12.60
2022-07-31T02:07:29.836Z,12.60
2022-07-31T02:09:59.282Z,12.60
2022-07-31T02:12:31.893Z,12.60
2022-07-31T02:15:02.194Z,12.60
2022-07-31T02:17:29.619Z,12.50
2022-07-31T02:20:00.315Z,12.50
2022-07-31T02:22:29.402Z,12.50
2022-07-31T02:24:56.743Z,12.40
2022-07-31T02:27:54.586Z,12.40
2022-07-31T02:30:16.368Z,12.30
2022-07-31T02:32:47.392Z,12.30
2022-07-31T02:35:17.542Z,12.20
2022-07-31T02:37:45.668Z,12.20
2022-07-31T02:40:14.211Z,12.20
2022-07-31T02:42:42.399Z,12.20
2022-07-31T02:45:12.110Z,12.20
2022-07-31T02:47:42.167Z,12.20
2022-07-31T02:50:09.871Z,12.20
2022-07-31T02:52:38.887Z,12.10
2022-07-31T02:55:06.549Z,12.00
2022-07-31T02:57:33.777Z,12.00
2022-07-31T03:00:01.094Z,11.90
2022-07-31T03:02:37.032Z,11.90
2022-07-31T03:05:05.899Z,11.80
2022-07-31T03:07:33.092Z,11.80
2022-07-31T03:10:00.267Z,11.90
2022-07-31T03:12:27.640Z,11.90
2022-07-31T03:14:55.532Z,11.90
2022-07-31T03:17:23.736Z,11.90
2022-07-31T03:20:07.666Z,12.00
2022-07-31T03:22:35.439Z,12.20
2022-07-31T03:25:04.122Z,12.40
2022-07-31T03:27:31.382Z,12.50
2022-07-31T03:29:58.639Z,12.50
2022-07-31T03:32:25.918Z,12.70
2022-07-31T03:34:53.242Z,12.80
2022-07-31T03:37:20.372Z,12.90
2022-07-31T03:39:47.486Z,13.00
2022-07-31T03:42:18.784Z,13.00
2022-07-31T03:44:47.757Z,13.10
2022-07-31T03:47:16.445Z,13.20
2022-07-31T03:49:44.590Z,13.20
2022-07-31T03:52:13.033Z,13.30
2022-07-31T03:54:41.320Z,13.30
2022-07-31T03:57:09.961Z,13.40
2022-07-31T03:59:40.655Z,13.50
2022-07-31T04:02:18.832Z,13.50
2022-07-31T04:04:46.365Z,13.50
2022-07-31T04:07:13.575Z,13.50
2022-07-31T04:09:40.907Z,13.40
2022-07-31T04:12:08.241Z,13.40
2022-07-31T04:14:35.369Z,13.40
2022-07-31T04:17:02.754Z,13.50
2022-07-31T04:19:33.797Z,13.50
2022-07-31T04:22:02.314Z,13.50
2022-07-31T04:24:29.786Z,13.60
2022-07-31T04:26:58.036Z,13.70
2022-07-31T04:29:25.338Z,13.90
2022-07-31T04:31:52.574Z,14.00
2022-07-31T04:34:19.876Z,14.20
2022-07-31T04:36:47.094Z,15.20
2022-07-31T04:39:14.357Z,16.40
2022-07-31T04:41:41.562Z,16.90
2022-07-31T04:44:08.758Z,17.20
2022-07-31T04:46:36.012Z,17.50
2022-07-31T04:49:04.569Z,17.30
2022-07-31T04:51:32.119Z,17.20
2022-07-31T04:53:59.314Z,17.20
2022-07-31T04:56:33.814Z,17.60
2022-07-31T04:59:03.164Z,19.30
2022-07-31T05:01:30.800Z,20.80
2022-07-31T05:03:58.550Z,21.60
2022-07-31T05:06:38.583Z,21.60
2022-07-31T05:09:12.430Z,21.50
2022-07-31T05:11:42.825Z,21.10
2022-07-31T05:14:12.128Z,20.80
2022-07-31T05:16:39.384Z,20.40
2022-07-31T05:19:14.854Z,20.20
2022-07-31T05:21:47.119Z,20.40
2022-07-31T05:24:32.617Z,20.20
2022-07-31T05:27:02.182Z,19.90
2022-07-31T05:29:29.968Z,20.90
2022-07-31T05:32:00.998Z,23.20
2022-07-31T05:34:31.382Z,25.70
2022-07-31T05:37:01.627Z,28.60
2022-07-31T05:39:29.692Z,30.80
2022-07-31T05:41:56.986Z,31.90
2022-07-31T05:44:24.793Z,33.00
2022-07-31T05:49:19.859Z,34.80
2022-07-31T05:51:47.306Z,35.80
2022-07-31T05:54:17.839Z,36.70
2022-07-31T05:56:45.140Z,37.50
2022-07-31T05:59:12.390Z,38.80
2022-07-31T06:01:39.774Z,38.60
2022-07-31T06:04:07.081Z,36.60
2022-07-31T06:06:34.262Z,38.60
2022-07-31T06:09:04.773Z,38.90
2022-07-31T06:11:32.448Z,40.60
2022-07-31T06:13:59.649Z,40.00
2022-07-31T06:16:26.791Z,41.00
2022-07-31T06:18:54.255Z,42.00
2022-07-31T06:23:47.374Z,42.30
2022-07-31T06:26:15.340Z,42.90
2022-07-31T06:28:48.474Z,42.90
2022-07-31T06:31:21.367Z,42.80
2022-07-31T06:33:50.025Z,43.00
2022-07-31T06:36:18.933Z,42.20
2022-07-31T06:38:46.468Z,42.90
2022-07-31T06:41:36.498Z,43.40
2022-07-31T06:44:03.894Z,43.90
2022-07-31T06:46:32.215Z,44.30
2022-07-31T06:48:59.721Z,44.10
2022-07-31T06:51:30.891Z,44.00
2022-07-31T06:54:00.467Z,44.20
2022-07-31T06:56:29.521Z,43.70
2022-07-31T06:58:57.436Z,44.90
2022-07-31T07:01:24.701Z,45.20
2022-07-31T07:03:52.580Z,45.20
2022-07-31T07:06:19.947Z,44.70
2022-07-31T07:08:47.189Z,44.10
2022-07-31T07:11:14.932Z,43.90
2022-07-31T07:13:45.924Z,43.70
2022-07-31T07:16:15.298Z,44.90
2022-07-31T07:18:43.650Z,43.20
2022-07-31T07:21:11.415Z,42.70
2022-07-31T07:23:39.156Z,42.10
2022-07-31T07:26:07.549Z,43.60
2022-07-31T07:28:35.371Z,42.70
2022-07-31T07:31:04.070Z,44.20
2022-07-31T07:33:40.120Z,45.30
2022-07-31T07:36:22.787Z,42.70
2022-07-31T07:38:55.407Z,42.90
2022-07-31T07:41:28.212Z,41.90
2022-07-31T07:44:02.710Z,45.20
2022-07-31T07:46:30.061Z,44.00
2022-07-31T07:48:57.530Z,42.50
2022-07-31T07:51:24.886Z,43.20
2022-07-31T07:53:52.087Z,43.00
2022-07-31T07:56:19.394Z,44.40
2022-07-31T07:58:49.127Z,44.10
2022-07-31T08:01:17.361Z,44.50
2022-07-31T08:03:49.995Z,44.50
2022-07-31T08:06:20.430Z,41.80
2022-07-31T08:08:47.943Z,40.60
2022-07-31T08:11:17.970Z,41.10
2022-07-31T08:13:50.699Z,43.30
2022-07-31T08:16:20.578Z,42.50
2022-07-31T08:18:49.557Z,43.20
2022-07-31T08:21:17.024Z,42.30
2022-07-31T08:23:44.227Z,42.20
2022-07-31T08:26:13.810Z,42.50
2022-07-31T08:28:41.711Z,41.40
2022-07-31T08:31:21.748Z,39.50
2022-07-31T08:33:48.978Z,41.50
2022-07-31T08:36:16.128Z,41.70
2022-07-31T08:38:43.500Z,40.70
2022-07-31T08:41:14.073Z,41.10
2022-07-31T08:44:02.369Z,40.90
2022-07-31T08:46:29.550Z,40.60
2022-07-31T08:48:57.826Z,37.60
2022-07-31T08:51:25.868Z,36.90
2022-07-31T08:53:54.317Z,36.50
2022-07-31T08:56:22.694Z,35.40
2022-07-31T08:58:49.914Z,35.70
2022-07-31T09:01:17.697Z,34.30
2022-07-31T09:03:45.268Z,34.50
2022-07-31T09:06:12.530Z,33.80
2022-07-31T09:08:40.481Z,32.80
2022-07-31T09:11:13.271Z,32.00
2022-07-31T09:14:01.715Z,31.10
2022-07-31T09:16:31.500Z,31.00
2022-07-31T09:19:00.731Z,31.00
2022-07-31T09:21:39.163Z,30.70
2022-07-31T09:24:08.038Z,30.30
2022-07-31T09:26:36.660Z,29.80
2022-07-31T09:29:08.664Z,30.00
2022-07-31T09:31:36.530Z,30.20
2022-07-31T09:34:03.988Z,30.30
2022-07-31T09:36:32.798Z,29.90
2022-07-31T09:39:00.074Z,30.00
2022-07-31T09:42:00.224Z,29.60
2022-07-31T09:44:26.123Z,29.40
2022-07-31T09:46:53.629Z,29.30
2022-07-31T09:49:34.065Z,29.20
2022-07-31T09:52:02.269Z,29.10
2022-07-31T09:54:31.637Z,29.40
2022-07-31T09:56:59.122Z,29.20
2022-07-31T09:59:26.880Z,28.90
2022-07-31T10:01:55.356Z,29.20
2022-07-31T10:04:23.737Z,29.20
2022-07-31T10:06:52.702Z,28.70
2022-07-31T10:09:21.810Z,29.20
2022-07-31T10:11:50.420Z,29.20
2022-07-31T10:14:32.490Z,28.70
2022-07-31T10:17:01.292Z,29.00
2022-07-31T10:19:32.534Z,28.80
2022-07-31T10:22:02.900Z,28.70
2022-07-31T10:24:33.511Z,28.40
2022-07-31T10:27:10.542Z,28.20
2022-07-31T10:29:41.230Z,28.70
2022-07-31T10:32:10.053Z,29.20
2022-07-31T10:34:38.063Z,29.30
2022-07-31T10:37:20.248Z,29.00
2022-07-31T10:40:13.180Z,28.20
2022-07-31T10:42:40.465Z,28.30
2022-07-31T10:45:16.657Z,29.10
2022-07-31T10:47:59.616Z,29.20
2022-07-31T10:50:30.244Z,29.60
2022-07-31T10:53:09.148Z,29.00
2022-07-31T10:55:37.159Z,29.00
2022-07-31T10:58:16.471Z,28.80
2022-07-31T11:00:44.063Z,28.50
2022-07-31T11:03:20.226Z,28.40
2022-07-31T11:06:02.601Z,28.30
2022-07-31T11:08:41.998Z,28.30
2022-07-31T11:11:09.665Z,28.70
2022-07-31T11:14:06.068Z,28.50
2022-07-31T11:16:33.465Z,28.90
2022-07-31T11:19:06.650Z,28.60
2022-07-31T11:21:40.325Z,27.80
2022-07-31T11:24:15.151Z,27.00
2022-07-31T11:26:48.671Z,26.70
2022-07-31T11:29:59.109Z,26.40
2022-07-31T11:32:25.740Z,26.40
2022-07-31T11:34:55.872Z,26.30
2022-07-31T11:37:39.467Z,26.40
2022-07-31T11:40:22.295Z,26.00
2022-07-31T11:43:10.670Z,25.90
2022-07-31T11:45:51.436Z,25.50
2022-07-31T11:48:21.125Z,25.50
2022-07-31T11:50:50.568Z,25.80
2022-07-31T11:53:19.570Z,26.50
2022-07-31T11:55:52.420Z,26.60
2022-07-31T11:58:22.419Z,27.10
2022-07-31T12:01:08.791Z,27.10
2022-07-31T12:03:38.623Z,27.20
2022-07-31T12:06:08.042Z,27.00
2022-07-31T12:08:35.799Z,26.20
2022-07-31T12:11:06.347Z,26.10
2022-07-31T12:13:33.694Z,26.30
2022-07-31T12:16:04.356Z,26.90
2022-07-31T12:18:45.069Z,26.80
2022-07-31T12:21:12.907Z,26.70
2022-07-31T12:23:51.583Z,26.40
2022-07-31T12:26:30.650Z,26.20
2022-07-31T12:29:02.302Z,25.90
2022-07-31T12:31:31.486Z,25.40
2022-07-31T12:33:58.793Z,24.90
2022-07-31T12:36:27.577Z,24.90
2022-07-31T12:39:04.019Z,24.50
2022-07-31T12:41:41.255Z,24.90
2022-07-31T12:44:14.816Z,25.50
2022-07-31T12:46:46.242Z,25.90
2022-07-31T12:49:13.775Z,26.10
2022-07-31T12:51:46.659Z,25.90
2022-07-31T12:54:18.002Z,25.70
2022-07-31T12:56:47.014Z,25.50
2022-07-31T12:59:14.548Z,25.70
2022-07-31T13:01:42.176Z,25.40
2022-07-31T13:04:18.722Z,25.50
2022-07-31T13:06:51.766Z,26.00
2022-07-31T13:09:19.949Z,26.80
2022-07-31T13:11:48.589Z,26.80
2022-07-31T13:14:18.332Z,27.30
2022-07-31T13:16:46.409Z,27.80
2022-07-31T13:19:14.365Z,27.60
2022-07-31T13:21:49.224Z,27.40
2022-07-31T13:24:21.435Z,27.20
2022-07-31T13:26:49.764Z,26.70
2022-07-31T13:29:18.161Z,26.50
2022-07-31T13:31:48.172Z,26.90
2022-07-31T13:34:15.479Z,26.80
2022-07-31T13:36:42.790Z,26.50
2022-07-31T13:39:11.060Z,26.20
2022-07-31T13:41:40.273Z,25.90
2022-07-31T13:44:07.945Z,25.80
2022-07-31T13:46:36.643Z,25.90
2022-07-31T13:49:08.681Z,25.80
2022-07-31T13:51:37.178Z,26.10
2022-07-31T13:54:04.863Z,26.20
2022-07-31T13:56:41.967Z,25.90
2022-07-31T13:59:13.635Z,25.90
2022-07-31T14:02:13.232Z,25.60
2022-07-31T14:04:38.189Z,25.40
2022-07-31T14:07:07.004Z,25.10
2022-07-31T14:09:35.358Z,25.00
2022-07-31T14:12:05.436Z,24.70
2022-07-31T14:14:33.474Z,24.50
2022-07-31T14:17:00.762Z,24.50
2022-07-31T14:19:28.055Z,24.50
2022-07-31T14:21:56.872Z,24.40
2022-07-31T14:24:26.445Z,24.20
2022-07-31T14:26:54.375Z,24.10
2022-07-31T14:29:21.645Z,24.00
2022-07-31T14:31:49.051Z,24.00
2022-07-31T14:34:16.255Z,24.20
2022-07-31T14:36:43.516Z,24.40
2022-07-31T14:39:12.199Z,24.60
2022-07-31T15:48:31.553Z,24.30
2022-07-31T15:50:59.264Z,24.20
2022-07-31T15:53:29.990Z,24.00
2022-07-31T15:56:06.614Z,23.90
2022-07-31T15:58:33.985Z,24.00
2022-07-31T16:01:01.377Z,24.00
2022-07-31T16:03:43.669Z,23.80
2022-07-31T16:06:16.095Z,23.90
2022-07-31T16:08:46.114Z,24.00
2022-07-31T16:11:13.890Z,24.00
2022-07-31T16:13:41.316Z,23.90
2022-07-31T16:16:08.842Z,23.90
2022-07-31T16:18:36.934Z,23.90
2022-07-31T16:21:04.493Z,23.80
2022-07-31T16:23:32.813Z,23.70
2022-07-31T16:26:00.593Z,23.70
2022-07-31T16:28:28.093Z,23.70
2022-07-31T16:30:55.863Z,23.70
2022-07-31T16:33:23.187Z,23.80
2022-07-31T16:35:50.592Z,23.70
2022-07-31T16:38:18.928Z,23.60
2022-07-31T16:40:49.722Z,23.50
2022-07-31T16:43:47.734Z,23.40
2022-07-31T16:46:10.872Z,23.20
2022-07-31T16:48:38.155Z,23.20
2022-07-31T16:51:06.791Z,23.00
2022-07-31T16:54:14.211Z,23.00
2022-07-31T16:56:23.224Z,22.90
2022-07-31T16:58:58.973Z,22.90
2022-07-31T17:01:54.204Z,22.80
2022-07-31T17:04:14.136Z,22.70
2022-07-31T17:06:41.652Z,22.70
2022-07-31T17:09:15.142Z,22.60
2022-07-31T17:11:54.579Z,22.50
2022-07-31T17:14:27.134Z,22.50
2022-07-31T17:16:55.627Z,22.50
2022-07-31T17:19:41.171Z,22.50
2022-07-31T17:22:11.304Z,22.40
2022-07-31T17:24:39.962Z,22.20
2022-07-31T17:27:08.954Z,22.00
2022-07-31T17:29:38.094Z,22.00
2022-07-31T17:32:06.212Z,21.80
2022-07-31T17:34:35.614Z,21.70
2022-07-31T17:37:05.048Z,21.60
2022-07-31T17:39:33.245Z,21.50
2022-07-31T17:42:01.162Z,21.40
2022-07-31T17:44:28.932Z,21.30
2022-07-31T17:46:58.065Z,21.20
2022-07-31T17:49:35.134Z,21.10
2022-07-31T17:52:02.496Z,21.10
2022-07-31T17:54:31.736Z,20.90
2022-07-31T17:57:03.226Z,20.80
2022-07-31T17:59:30.893Z,20.70
2022-07-31T18:02:04.256Z,20.70
2022-07-31T18:04:33.995Z,20.50
2022-07-31T18:07:04.729Z,20.50
2022-07-31T18:09:32.652Z,20.30
2022-07-31T18:12:00.218Z,20.20
2022-07-31T18:14:27.754Z,20.00
2022-07-31T18:17:21.591Z,19.80
2022-07-31T18:19:49.511Z,19.60
2022-07-31T18:22:17.409Z,19.40
2022-07-31T18:24:44.755Z,19.40
2022-07-31T18:27:12.281Z,19.20
2022-07-31T18:29:55.794Z,19.10
2022-07-31T18:32:23.955Z,19.00
2022-07-31T18:37:55.240Z,18.90
2022-07-31T18:40:24.033Z,18.80
2022-07-31T18:42:52.347Z,18.60
2022-07-31T18:45:20.040Z,18.50
2022-07-31T18:47:49.698Z,18.40
2022-07-31T18:51:01.035Z,18.40
2022-07-31T18:53:04.942Z,18.30
2022-07-31T18:55:32.373Z,18.30
2022-07-31T18:57:59.827Z,18.20
2022-07-31T19:00:27.144Z,18.10
2022-07-31T19:02:54.348Z,18.00
2022-07-31T19:08:08.973Z,17.70
2022-07-31T19:10:36.416Z,17.50
2022-07-31T19:13:03.786Z,17.40
2022-07-31T19:15:31.128Z,17.30
2022-07-31T19:17:58.653Z,17.20
2022-07-31T19:20:56.227Z,17.10
2022-07-31T19:23:17.497Z,17.00
2022-07-31T19:26:03.674Z,16.90
2022-07-31T19:28:32.984Z,16.90
2022-07-31T19:31:00.692Z,16.80
2022-07-31T19:33:28.181Z,16.80
2022-07-31T19:36:01.438Z,16.80
2022-07-31T19:38:34.155Z,16.70
2022-07-31T19:41:01.591Z,16.70
2022-07-31T19:43:29.891Z,16.60
2022-07-31T19:46:09.456Z,16.50
2022-07-31T19:48:41.503Z,16.40
2022-07-31T19:51:09.835Z,16.40
2022-07-31T19:53:37.659Z,16.40
2022-07-31T19:56:07.792Z,16.40
2022-07-31T19:58:36.521Z,16.40
2022-07-31T20:01:05.571Z,16.40
2022-07-31T20:03:34.079Z,16.40
2022-07-31T20:06:03.111Z,16.30
2022-07-31T20:08:33.151Z,16.40
2022-07-31T20:11:04.180Z,16.50
2022-07-31T20:13:33.412Z,16.50
2022-07-31T20:16:01.300Z,16.60
2022-07-31T20:18:29.391Z,16.60
2022-07-31T20:21:00.018Z,16.70
2022-07-31T20:23:27.893Z,16.80
2022-07-31T20:25:57.167Z,16.80
2022-07-31T20:28:29.032Z,16.80
2022-07-31T20:30:56.386Z,16.90
2022-07-31T20:33:24.736Z,16.80
2022-07-31T20:35:52.563Z,16.90
2022-07-31T20:38:23.932Z,16.90
2022-07-31T20:40:55.889Z,16.90
2022-07-31T20:43:24.852Z,16.90
2022-07-31T20:45:55.213Z,16.90
2022-07-31T20:48:24.662Z,16.90
2022-07-31T20:50:53.073Z,16.90
2022-07-31T20:53:21.803Z,17.00
2022-07-31T20:55:50.661Z,17.00
2022-07-31T20:58:22.740Z,17.00
2022-07-31T21:00:52.296Z,17.00
2022-07-31T21:03:20.151Z,17.10
2022-07-31T21:05:48.993Z,17.10
2022-07-31T21:08:34.866Z,17.10
2022-07-31T21:11:02.314Z,17.00
2022-07-31T21:13:29.773Z,16.90
2022-07-31T21:15:57.353Z,16.90
2022-07-31T21:18:24.815Z,16.90
2022-07-31T21:20:53.733Z,16.80
2022-07-31T21:23:27.891Z,16.80
2022-07-31T21:26:03.165Z,16.90
2022-07-31T21:28:31.941Z,16.80
2022-07-31T21:31:25.744Z,16.80
2022-07-31T21:33:53.427Z,16.80
2022-07-31T21:36:23.374Z,16.70
2022-07-31T21:38:53.634Z,16.60
2022-07-31T21:41:23.108Z,16.50
2022-07-31T21:43:59.223Z,16.40
2022-07-31T21:46:29.125Z,16.40
2022-07-31T21:48:56.776Z,16.30
2022-07-31T21:51:24.491Z,16.20
2022-07-31T21:53:51.917Z,16.20
2022-07-31T21:56:19.331Z,16.10
2022-07-31T21:58:46.821Z,15.90
2022-07-31T22:01:39.038Z,15.80
2022-07-31T22:04:29.939Z,15.70
2022-07-31T22:07:20.831Z,15.70
2022-07-31T22:09:48.336Z,15.60
2022-07-31T22:12:15.732Z,15.60
2022-07-31T22:14:43.190Z,15.60
2022-07-31T22:17:13.097Z,15.50
2022-07-31T22:19:44.384Z,15.50
2022-07-31T22:22:15.429Z,15.50
2022-07-31T22:24:43.133Z,15.60
2022-07-31T22:27:29.934Z,15.60
2022-07-31T22:29:57.774Z,15.60
2022-07-31T22:32:44.299Z,15.60
2022-07-31T22:35:30.548Z,15.70
2022-07-31T22:37:58.173Z,15.70
2022-07-31T22:40:44.177Z,15.70
2022-07-31T22:44:13.792Z,15.80
2022-07-31T22:46:01.378Z,15.80
2022-07-31T22:48:29.739Z,15.90
2022-07-31T22:50:57.242Z,15.90
2022-07-31T22:53:25.354Z,15.90
2022-07-31T22:55:55.878Z,15.90
2022-07-31T22:58:23.555Z,15.90
2022-07-31T23:00:50.977Z,15.90
2022-07-31T23:03:18.399Z,15.80
2022-07-31T23:06:13.166Z,15.80
2022-07-31T23:08:33.517Z,15.90
2022-07-31T23:11:00.842Z,15.80
2022-07-31T23:13:29.041Z,15.80
2022-07-31T23:15:56.461Z,15.80
2022-07-31T23:18:24.033Z,15.80
2022-07-31T23:20:51.365Z,15.70
2022-07-31T23:23:18.753Z,15.80
2022-07-31T23:25:46.081Z,15.80
2022-07-31T23:28:13.403Z,15.70
2022-07-31T23:30:40.894Z,15.60
2022-07-31T23:33:08.375Z,15.70
2022-07-31T23:35:35.813Z,15.70
2022-07-31T23:38:03.248Z,15.70
2022-07-31T23:40:30.681Z,15.70
2022-07-31T23:42:58.023Z,15.70
2022-07-31T23:45:25.381Z,15.70
2022-07-31T23:47:52.833Z,15.70
2022-07-31T23:50:20.190Z,15.80
2022-07-31T23:52:47.701Z,15.80
2022-07-31T23:55:15.372Z,15.90
2022-07-31T23:57:42.853Z,15.70
